Time;durP1;ratioP1;P1;durP2;ratioP2;P2;SDS_P1;SDS_P2;PMS_P1;PMS_P2;Temp;Humidity;BMP_temperature;BMP_pressure;BME280_temperature;BME280_humidity;BME280_pressure;Samples;Min_cycle;Max_cycle;Signal;HPM_P1;HPM_P2
2022/02/19 00:00:31;;;;;;;;;;;22.00;34.80;;;;;;484081;246;1027;-39
2022/02/19 00:02:32;;;;;;;;;;;22.00;34.80;;;;;;484396;246;1226;-39
2022/02/19 00:04:34;;;;;;;;;;;22.00;34.80;;;;;;484474;246;1040;-39
2022/02/19 00:06:37;;;;;;;;;;;22.00;34.80;;;;;;483916;246;1545;-39
2022/02/19 00:08:36;;;;;;;;;;;22.00;34.90;;;;;;483924;246;1858;-39
2022/02/19 00:10:38;;;;;;;;;;;22.00;34.90;;;;;;484510;246;1026;-39
2022/02/19 00:12:39;;;;;;;;;;;22.00;34.90;;;;;;484077;246;2132;-39
2022/02/19 00:14:40;;;;;;;;;;;22.00;34.80;;;;;;484005;246;1003;-39
2022/02/19 00:16:42;;;;;;;;;;;22.10;34.90;;;;;;484199;246;1331;-39
2022/02/19 00:18:43;;;;;;;;;;;22.00;34.90;;;;;;484465;246;1176;-39
2022/02/19 00:20:44;;;;;;;;;;;22.00;34.80;;;;;;484455;246;1372;-39
2022/02/19 00:22:46;;;;;;;;;;;22.00;34.80;;;;;;483969;246;1165;-39
2022/02/19 00:24:47;;;;;;;;;;;22.00;34.80;;;;;;484497;246;1054;-39
2022/02/19 00:26:48;;;;;;;;;;;22.00;34.70;;;;;;484391;242;1362;-39
2022/02/19 00:28:50;;;;;;;;;;;22.00;34.70;;;;;;484048;246;1036;-39
2022/02/19 00:30:51;;;;;;;;;;;22.00;34.70;;;;;;484460;246;1184;-39
2022/02/19 00:32:52;;;;;;;;;;;22.00;34.80;;;;;;483903;246;2121;-39
2022/02/19 00:34:53;;;;;;;;;;;22.00;34.80;;;;;;484296;246;1084;-39
2022/02/19 00:36:55;;;;;;;;;;;22.00;34.80;;;;;;483944;246;1209;-39
2022/02/19 00:38:56;;;;;;;;;;;22.00;34.80;;;;;;484115;246;1055;-39
2022/02/19 00:40:58;;;;;;;;;;;22.00;34.80;;;;;;483940;246;1117;-39
2022/02/19 00:42:59;;;;;;;;;;;22.00;34.80;;;;;;484434;246;1185;-39
2022/02/19 00:45:00;;;;;;;;;;;22.00;34.80;;;;;;484027;246;1054;-39
2022/02/19 00:47:01;;;;;;;;;;;22.10;34.80;;;;;;484381;246;1206;-39
2022/02/19 00:49:03;;;;;;;;;;;22.00;34.80;;;;;;484427;246;1054;-39
2022/02/19 00:51:04;;;;;;;;;;;22.00;34.70;;;;;;484372;246;1308;-39
2022/02/19 00:53:05;;;;;;;;;;;22.00;34.80;;;;;;484059;246;2137;-39
2022/02/19 00:55:07;;;;;;;;;;;22.10;34.70;;;;;;484462;246;1202;-39
2022/02/19 00:57:08;;;;;;;;;;;22.10;34.70;;;;;;483958;246;1088;-39
2022/02/19 00:59:10;;;;;;;;;;;22.10;34.70;;;;;;484013;246;1166;-39
2022/02/19 01:01:11;;;;;;;;;;;22.00;34.60;;;;;;484369;246;1369;-39
2022/02/19 01:03:12;;;;;;;;;;;22.00;34.70;;;;;;483978;246;1237;-39
2022/02/19 01:05:13;;;;;;;;;;;22.00;34.70;;;;;;484496;246;1183;-39
2022/02/19 01:07:15;;;;;;;;;;;22.00;34.70;;;;;;484125;246;1225;-39
2022/02/19 01:09:16;;;;;;;;;;;22.00;34.80;;;;;;484287;246;1056;-39
2022/02/19 01:11:18;;;;;;;;;;;22.00;34.70;;;;;;484400;246;1503;-39
2022/02/19 01:13:19;;;;;;;;;;;22.00;34.70;;;;;;484404;246;2190;-39
2022/02/19 01:15:21;;;;;;;;;;;22.00;34.70;;;;;;484481;246;1214;-39
2022/02/19 01:17:22;;;;;;;;;;;22.00;34.70;;;;;;484376;246;1214;-39
2022/02/19 01:19:25;;;;;;;;;;;22.00;34.70;;;;;;484517;246;1057;-39
2022/02/19 01:21:24;;;;;;;;;;;22.00;34.70;;;;;;483891;246;2068;-39
2022/02/19 01:23:26;;;;;;;;;;;22.00;34.60;;;;;;484083;246;1200;-39
2022/02/19 01:25:27;;;;;;;;;;;22.00;34.60;;;;;;484296;246;1034;-39
2022/02/19 01:27:28;;;;;;;;;;;22.10;34.70;;;;;;484432;246;1157;-39
2022/02/19 01:29:30;;;;;;;;;;;22.10;34.60;;;;;;484436;246;1065;-39
2022/02/19 01:31:31;;;;;;;;;;;22.00;34.60;;;;;;484012;246;1313;-39
2022/02/19 01:33:32;;;;;;;;;;;22.00;34.60;;;;;;484081;246;2124;-39
2022/02/19 01:35:34;;;;;;;;;;;22.00;34.70;;;;;;483960;246;1301;-39
2022/02/19 01:37:35;;;;;;;;;;;22.00;34.70;;;;;;484273;246;1173;-39
2022/02/19 01:39:36;;;;;;;;;;;22.00;34.60;;;;;;484456;246;1072;-39
2022/02/19 01:41:38;;;;;;;;;;;22.00;34.70;;;;;;484274;246;1478;-39
2022/02/19 01:43:39;;;;;;;;;;;22.00;34.70;;;;;;484027;246;1276;-39
2022/02/19 01:45:40;;;;;;;;;;;22.10;34.70;;;;;;484404;246;1149;-39
2022/02/19 01:47:42;;;;;;;;;;;22.10;34.70;;;;;;484439;246;1039;-39
2022/02/19 01:49:43;;;;;;;;;;;22.00;34.60;;;;;;484510;246;1024;-39
2022/02/19 01:51:44;;;;;;;;;;;22.00;34.70;;;;;;484406;246;1253;-39
2022/02/19 01:53:45;;;;;;;;;;;22.00;34.70;;;;;;484032;246;2188;-39
2022/02/19 01:55:47;;;;;;;;;;;22.00;34.70;;;;;;484330;246;1104;-39
2022/02/19 01:57:48;;;;;;;;;;;22.00;34.70;;;;;;484375;246;1199;-39
2022/02/19 01:59:50;;;;;;;;;;;22.00;34.70;;;;;;484434;246;1075;-39
2022/02/19 02:01:51;;;;;;;;;;;22.00;34.60;;;;;;484373;243;1138;-39
2022/02/19 02:03:52;;;;;;;;;;;22.00;34.60;;;;;;484325;246;1055;-39
2022/02/19 02:05:53;;;;;;;;;;;22.00;34.70;;;;;;483964;246;1150;-39
2022/02/19 02:07:55;;;;;;;;;;;22.00;34.70;;;;;;484168;246;1176;-39
2022/02/19 02:09:57;;;;;;;;;;;22.00;34.70;;;;;;484461;246;1061;-39
2022/02/19 02:11:57;;;;;;;;;;;22.00;34.70;;;;;;483932;246;2407;-39
2022/02/19 02:13:59;;;;;;;;;;;22.00;34.70;;;;;;484467;246;2116;-39
2022/02/19 02:16:00;;;;;;;;;;;22.00;34.70;;;;;;484439;246;1182;-39
2022/02/19 02:18:01;;;;;;;;;;;22.00;34.70;;;;;;484383;246;1183;-39
2022/02/19 02:20:03;;;;;;;;;;;22.00;34.70;;;;;;484030;246;1088;-39
2022/02/19 02:22:04;;;;;;;;;;;22.00;34.60;;;;;;484394;246;1002;-39
2022/02/19 02:24:05;;;;;;;;;;;22.00;34.60;;;;;;484080;246;1229;-39
2022/02/19 02:26:08;;;;;;;;;;;22.00;34.70;;;;;;484439;246;1162;-39
2022/02/19 02:28:09;;;;;;;;;;;22.00;34.70;;;;;;484173;246;2139;-39
2022/02/19 02:30:10;;;;;;;;;;;22.00;34.70;;;;;;484491;246;1097;-39
2022/02/19 02:32:12;;;;;;;;;;;22.10;34.60;;;;;;484393;246;1112;-39
2022/02/19 02:34:13;;;;;;;;;;;22.00;34.60;;;;;;484018;246;2188;-39
2022/02/19 02:36:14;;;;;;;;;;;22.00;34.60;;;;;;484053;246;1074;-39
2022/02/19 02:38:16;;;;;;;;;;;22.00;34.60;;;;;;484364;246;1175;-39
2022/02/19 02:40:17;;;;;;;;;;;22.00;34.60;;;;;;484421;246;1076;-39
2022/02/19 02:42:18;;;;;;;;;;;22.00;34.70;;;;;;483954;246;1045;-39
2022/02/19 02:44:20;;;;;;;;;;;22.00;34.70;;;;;;484534;246;1006;-39
2022/02/19 02:46:21;;;;;;;;;;;22.00;34.70;;;;;;484160;246;1053;-39
2022/02/19 02:48:22;;;;;;;;;;;22.00;34.70;;;;;;484064;246;1062;-39
2022/02/19 02:50:23;;;;;;;;;;;22.00;34.70;;;;;;484084;246;1051;-39
2022/02/19 02:52:25;;;;;;;;;;;22.00;34.70;;;;;;484147;243;2200;-39
2022/02/19 02:54:26;;;;;;;;;;;22.00;34.70;;;;;;484189;246;1157;-39
2022/02/19 02:56:28;;;;;;;;;;;22.00;34.60;;;;;;484471;246;1069;-39
2022/02/19 02:58:29;;;;;;;;;;;22.00;34.70;;;;;;484503;246;1084;-39
2022/02/19 03:00:30;;;;;;;;;;;22.00;34.70;;;;;;484252;246;1057;-39
2022/02/19 03:02:34;;;;;;;;;;;22.00;34.60;;;;;;483966;246;1254;-39
2022/02/19 03:04:33;;;;;;;;;;;22.00;34.70;;;;;;484369;246;2387;-39
2022/02/19 03:06:34;;;;;;;;;;;22.00;34.60;;;;;;484226;246;1268;-39
2022/02/19 03:08:35;;;;;;;;;;;22.00;34.70;;;;;;483975;246;1209;-39
2022/02/19 03:10:37;;;;;;;;;;;22.00;34.70;;;;;;484169;246;1075;-39
2022/02/19 03:12:38;;;;;;;;;;;22.10;34.60;;;;;;484035;246;2199;-39
2022/02/19 03:14:39;;;;;;;;;;;22.00;34.60;;;;;;484448;246;1028;-39
2022/02/19 03:16:41;;;;;;;;;;;22.00;34.60;;;;;;484045;246;1067;-39
2022/02/19 03:18:42;;;;;;;;;;;22.10;34.70;;;;;;484488;246;1063;-39
2022/02/19 03:20:43;;;;;;;;;;;22.00;34.60;;;;;;484490;246;1076;-39
2022/02/19 03:22:45;;;;;;;;;;;22.10;34.60;;;;;;484282;246;1295;-39
2022/02/19 03:24:46;;;;;;;;;;;22.10;34.60;;;;;;484203;246;1185;-39
2022/02/19 03:26:47;;;;;;;;;;;22.10;34.60;;;;;;483973;246;1368;-39
2022/02/19 03:28:49;;;;;;;;;;;22.10;34.60;;;;;;484507;246;1073;-39
2022/02/19 03:30:50;;;;;;;;;;;22.10;34.50;;;;;;484394;246;1064;-39
2022/02/19 03:32:51;;;;;;;;;;;22.10;34.60;;;;;;484342;246;2208;-39
2022/02/19 03:34:52;;;;;;;;;;;22.00;34.50;;;;;;484379;246;1027;-39
2022/02/19 03:36:54;;;;;;;;;;;22.10;34.60;;;;;;483937;246;1255;-39
2022/02/19 03:38:55;;;;;;;;;;;22.10;34.50;;;;;;484260;246;1360;-39
2022/02/19 03:40:56;;;;;;;;;;;22.10;34.60;;;;;;484434;246;1093;-39
2022/02/19 03:42:59;;;;;;;;;;;22.00;34.50;;;;;;483999;246;1195;-39
2022/02/19 03:44:59;;;;;;;;;;;22.00;34.50;;;;;;484373;246;1308;-39
2022/02/19 03:47:00;;;;;;;;;;;22.00;34.50;;;;;;483912;246;1190;-39
2022/02/19 03:49:02;;;;;;;;;;;22.10;34.50;;;;;;484028;246;1096;-39
2022/02/19 03:51:05;;;;;;;;;;;22.10;34.50;;;;;;484052;246;1092;-39
2022/02/19 03:53:05;;;;;;;;;;;22.00;34.50;;;;;;484346;246;2384;-40
2022/02/19 03:55:06;;;;;;;;;;;22.10;34.60;;;;;;484250;246;1190;-39
2022/02/19 03:57:08;;;;;;;;;;;22.10;34.50;;;;;;483959;246;1600;-39
2022/02/19 03:59:12;;;;;;;;;;;22.10;34.50;;;;;;484514;246;1110;-39
2022/02/19 04:01:11;;;;;;;;;;;22.00;34.50;;;;;;484196;246;2313;-39
2022/02/19 04:03:12;;;;;;;;;;;22.10;34.50;;;;;;484409;246;1239;-39
2022/02/19 04:05:13;;;;;;;;;;;22.10;34.50;;;;;;484051;246;1195;-39
2022/02/19 04:07:15;;;;;;;;;;;22.10;34.40;;;;;;484455;246;1274;-39
2022/02/19 04:09:16;;;;;;;;;;;22.00;34.50;;;;;;484108;246;1301;-39
2022/02/19 04:11:18;;;;;;;;;;;22.10;34.50;;;;;;484434;246;1019;-40
2022/02/19 04:13:20;;;;;;;;;;;22.10;34.50;;;;;;484460;246;2307;-39
2022/02/19 04:15:20;;;;;;;;;;;22.10;34.50;;;;;;484348;246;2217;-39
2022/02/19 04:17:21;;;;;;;;;;;22.10;34.60;;;;;;484409;246;1198;-39
2022/02/19 04:19:23;;;;;;;;;;;22.10;34.50;;;;;;484040;246;975;-39
2022/02/19 04:21:24;;;;;;;;;;;22.10;34.50;;;;;;484031;246;1443;-39
2022/02/19 04:23:25;;;;;;;;;;;22.10;34.40;;;;;;484040;246;1334;-39
2022/02/19 04:25:27;;;;;;;;;;;22.10;34.40;;;;;;484204;246;1226;-39
2022/02/19 04:27:28;;;;;;;;;;;22.10;34.50;;;;;;484429;246;1002;-39
2022/02/19 04:29:30;;;;;;;;;;;22.00;34.50;;;;;;484298;246;1029;-39
2022/02/19 04:31:31;;;;;;;;;;;22.00;34.50;;;;;;484279;246;1070;-39
2022/02/19 04:33:32;;;;;;;;;;;22.00;34.50;;;;;;483976;246;2133;-39
2022/02/19 04:35:34;;;;;;;;;;;22.00;34.50;;;;;;484357;246;1092;-39
2022/02/19 04:37:35;;;;;;;;;;;22.10;34.60;;;;;;483956;246;1215;-39
2022/02/19 04:39:36;;;;;;;;;;;22.10;34.50;;;;;;484072;246;1162;-39
2022/02/19 04:41:37;;;;;;;;;;;22.10;34.50;;;;;;484401;246;1089;-39
2022/02/19 04:43:39;;;;;;;;;;;22.10;34.50;;;;;;484444;246;1237;-40
2022/02/19 04:45:40;;;;;;;;;;;22.10;34.50;;;;;;484478;246;1069;-39
2022/02/19 04:47:41;;;;;;;;;;;22.10;34.50;;;;;;483967;246;1647;-39
2022/02/19 04:49:43;;;;;;;;;;;22.10;34.50;;;;;;484057;246;1292;-39
2022/02/19 04:51:44;;;;;;;;;;;22.10;34.50;;;;;;484470;246;1193;-39
2022/02/19 04:53:45;;;;;;;;;;;22.10;34.50;;;;;;484434;246;2140;-39
2022/02/19 04:55:47;;;;;;;;;;;22.10;34.50;;;;;;483929;246;1229;-39
2022/02/19 04:57:48;;;;;;;;;;;22.10;34.50;;;;;;484153;246;1194;-39
2022/02/19 04:59:49;;;;;;;;;;;22.00;34.50;;;;;;484441;246;1123;-39
2022/02/19 05:01:51;;;;;;;;;;;22.00;34.60;;;;;;484397;246;1177;-39
2022/02/19 05:03:54;;;;;;;;;;;22.00;34.60;;;;;;484451;246;1069;-39
2022/02/19 05:05:54;;;;;;;;;;;22.10;34.60;;;;;;483871;246;2369;-39
2022/02/19 05:07:55;;;;;;;;;;;22.10;34.50;;;;;;484045;246;1239;-39
2022/02/19 05:09:56;;;;;;;;;;;22.10;34.50;;;;;;484495;246;1281;-39
2022/02/19 05:11:58;;;;;;;;;;;22.10;34.50;;;;;;484427;246;1268;-39
2022/02/19 05:13:59;;;;;;;;;;;22.10;34.50;;;;;;484473;246;2132;-39
2022/02/19 05:16:00;;;;;;;;;;;22.10;34.50;;;;;;483989;246;1390;-39
2022/02/19 05:18:05;;;;;;;;;;;22.10;34.40;;;;;;484216;246;1632;-39
2022/02/19 05:20:03;;;;;;;;;;;22.10;34.50;;;;;;484756;246;2185;-39
2022/02/19 05:22:04;;;;;;;;;;;22.10;34.50;;;;;;484486;246;1340;-39
2022/02/19 05:24:06;;;;;;;;;;;22.10;34.50;;;;;;484762;245;1049;-39
2022/02/19 05:26:07;;;;;;;;;;;22.10;34.50;;;;;;484197;246;1226;-39
2022/02/19 05:28:08;;;;;;;;;;;22.10;34.40;;;;;;484413;246;1235;-40
2022/02/19 05:30:10;;;;;;;;;;;22.10;34.50;;;;;;484125;246;1215;-39
2022/02/19 05:32:11;;;;;;;;;;;22.10;34.50;;;;;;470704;253;1302;-39
2022/02/19 05:34:12;;;;;;;;;;;22.10;34.50;;;;;;469356;253;2204;-39
2022/02/19 05:36:14;;;;;;;;;;;22.10;34.40;;;;;;484956;245;2339;-39
2022/02/19 05:38:15;;;;;;;;;;;22.10;34.50;;;;;;469270;253;1281;-39
2022/02/19 05:40:16;;;;;;;;;;;22.10;34.60;;;;;;477657;249;1093;-39
2022/02/19 05:42:18;;;;;;;;;;;22.10;34.50;;;;;;477714;249;1235;-39
2022/02/19 05:44:19;;;;;;;;;;;22.10;34.50;;;;;;477319;248;1109;-39
2022/02/19 05:46:20;;;;;;;;;;;22.10;34.50;;;;;;476807;246;1134;-39
2022/02/19 05:48:22;;;;;;;;;;;22.10;34.50;;;;;;476695;250;1082;-39
2022/02/19 05:50:23;;;;;;;;;;;22.10;34.50;;;;;;480182;246;1233;-39
2022/02/19 05:52:24;;;;;;;;;;;22.00;34.50;;;;;;484226;246;1320;-39
2022/02/19 05:54:25;;;;;;;;;;;22.10;34.50;;;;;;484467;246;2124;-39
2022/02/19 05:56:27;;;;;;;;;;;22.10;34.50;;;;;;484204;246;1190;-39
2022/02/19 05:58:28;;;;;;;;;;;22.10;34.50;;;;;;484499;246;1029;-39
2022/02/19 06:00:29;;;;;;;;;;;22.10;34.50;;;;;;484484;246;1066;-39
2022/02/19 06:02:31;;;;;;;;;;;22.10;34.50;;;;;;484092;246;1839;-39
2022/02/19 06:04:32;;;;;;;;;;;22.10;34.50;;;;;;483976;246;1132;-39
2022/02/19 06:06:33;;;;;;;;;;;22.10;34.50;;;;;;484258;246;1183;-40
2022/02/19 06:08:37;;;;;;;;;;;22.10;34.50;;;;;;483955;246;1081;-39
2022/02/19 06:10:36;;;;;;;;;;;22.10;34.50;;;;;;483929;246;2285;-39
2022/02/19 06:12:38;;;;;;;;;;;22.10;34.50;;;;;;483963;246;1275;-39
2022/02/19 06:14:39;;;;;;;;;;;22.10;34.50;;;;;;484013;246;2129;-39
2022/02/19 06:16:40;;;;;;;;;;;22.10;34.50;;;;;;484397;246;1093;-39
2022/02/19 06:18:42;;;;;;;;;;;22.10;34.50;;;;;;484017;246;1181;-39
2022/02/19 06:20:43;;;;;;;;;;;22.10;34.50;;;;;;484011;246;1156;-40
2022/02/19 06:22:44;;;;;;;;;;;22.10;34.50;;;;;;484205;246;1195;-39
2022/02/19 06:24:46;;;;;;;;;;;22.10;34.50;;;;;;484465;246;1064;-39
2022/02/19 06:26:47;;;;;;;;;;;22.10;34.50;;;;;;484218;246;1202;-39
2022/02/19 06:28:48;;;;;;;;;;;22.10;34.50;;;;;;484373;246;1017;-39
2022/02/19 06:30:50;;;;;;;;;;;22.10;34.50;;;;;;484483;246;1204;-40
2022/02/19 06:32:51;;;;;;;;;;;22.10;34.50;;;;;;484300;246;1260;-39
2022/02/19 06:34:52;;;;;;;;;;;22.10;34.50;;;;;;484467;246;2121;-39
2022/02/19 06:36:53;;;;;;;;;;;22.10;34.50;;;;;;484406;246;1005;-39
2022/02/19 06:38:55;;;;;;;;;;;22.10;34.50;;;;;;484463;246;1059;-39
2022/02/19 06:40:56;;;;;;;;;;;22.10;34.40;;;;;;484438;246;1173;-39
2022/02/19 06:42:57;;;;;;;;;;;22.10;34.40;;;;;;484061;246;1187;-39
2022/02/19 06:44:59;;;;;;;;;;;22.10;34.40;;;;;;484021;246;1216;-39
2022/02/19 06:47:00;;;;;;;;;;;22.10;34.50;;;;;;483884;246;1177;-39
2022/02/19 06:49:01;;;;;;;;;;;22.10;34.50;;;;;;484408;246;1061;-39
2022/02/19 06:51:03;;;;;;;;;;;22.10;34.40;;;;;;484270;246;1272;-39
2022/02/19 06:53:04;;;;;;;;;;;22.10;34.40;;;;;;483985;246;1084;-39
2022/02/19 06:55:05;;;;;;;;;;;22.10;34.50;;;;;;484031;246;2191;-39
2022/02/19 06:57:10;;;;;;;;;;;22.10;34.50;;;;;;484265;246;1110;-39
2022/02/19 06:59:10;;;;;;;;;;;22.10;34.50;;;;;;483899;246;2330;-39
2022/02/19 07:01:10;;;;;;;;;;;22.00;34.50;;;;;;483884;246;1627;-39
2022/02/19 07:03:11;;;;;;;;;;;22.10;34.50;;;;;;483966;246;2311;-39
2022/02/19 07:05:12;;;;;;;;;;;22.10;34.50;;;;;;484169;246;1114;-39
2022/02/19 07:07:14;;;;;;;;;;;22.10;34.50;;;;;;484045;246;1104;-39
2022/02/19 07:09:15;;;;;;;;;;;22.10;34.50;;;;;;484463;246;1092;-39
2022/02/19 07:11:16;;;;;;;;;;;22.10;34.50;;;;;;483996;246;1076;-39
2022/02/19 07:13:18;;;;;;;;;;;22.10;34.40;;;;;;484068;246;1324;-39
2022/02/19 07:15:20;;;;;;;;;;;22.10;34.40;;;;;;484243;246;2196;-39
2022/02/19 07:17:20;;;;;;;;;;;22.00;34.50;;;;;;483921;246;2322;-39
2022/02/19 07:19:22;;;;;;;;;;;22.00;34.50;;;;;;484482;246;1013;-39
2022/02/19 07:21:23;;;;;;;;;;;22.00;34.60;;;;;;483962;246;1502;-39
2022/02/19 07:23:24;;;;;;;;;;;22.00;34.50;;;;;;484182;246;1228;-39
2022/02/19 07:25:25;;;;;;;;;;;22.10;34.60;;;;;;484456;246;1078;-39
2022/02/19 07:27:27;;;;;;;;;;;22.00;34.50;;;;;;484160;246;1190;-39
2022/02/19 07:29:28;;;;;;;;;;;22.10;34.50;;;;;;484294;246;1037;-39
2022/02/19 07:31:29;;;;;;;;;;;22.10;34.50;;;;;;484183;246;1155;-39
2022/02/19 07:33:31;;;;;;;;;;;22.10;34.50;;;;;;484296;246;1157;-39
2022/02/19 07:35:32;;;;;;;;;;;22.10;34.50;;;;;;484463;246;2108;-39
2022/02/19 07:37:33;;;;;;;;;;;22.10;34.50;;;;;;484431;246;1257;-40
2022/02/19 07:39:35;;;;;;;;;;;22.00;34.50;;;;;;484498;246;1043;-39
2022/02/19 07:41:37;;;;;;;;;;;22.10;34.50;;;;;;484020;246;1461;-39
2022/02/19 07:43:37;;;;;;;;;;;22.10;34.50;;;;;;483996;246;2314;-39
2022/02/19 07:45:39;;;;;;;;;;;22.10;34.50;;;;;;484493;246;1089;-39
2022/02/19 07:47:40;;;;;;;;;;;22.00;34.50;;;;;;483954;246;1175;-39
2022/02/19 07:58:58;;;;;;;;;;;22.10;34.60;;;;;;483993;246;1207;-39
2022/02/19 08:00:59;;;;;;;;;;;22.10;34.50;;;;;;484007;246;1056;-39
2022/02/19 08:03:00;;;;;;;;;;;22.10;34.50;;;;;;484115;246;1178;-39
2022/02/19 08:05:02;;;;;;;;;;;22.00;34.50;;;;;;484240;246;1135;-39
2022/02/19 08:07:03;;;;;;;;;;;22.00;34.50;;;;;;483984;246;1189;-39
2022/02/19 08:09:04;;;;;;;;;;;22.00;34.50;;;;;;484498;246;1175;-39
2022/02/19 08:11:06;;;;;;;;;;;22.10;34.50;;;;;;483951;246;1322;-39
2022/02/19 08:13:07;;;;;;;;;;;22.10;34.40;;;;;;484240;246;1246;-39
2022/02/19 08:15:09;;;;;;;;;;;22.00;34.50;;;;;;484046;246;2180;-39
2022/02/19 08:17:10;;;;;;;;;;;22.00;34.40;;;;;;484403;246;1520;-39
2022/02/19 08:19:12;;;;;;;;;;;22.00;34.50;;;;;;484036;246;1057;-39
2022/02/19 08:21:13;;;;;;;;;;;22.00;34.50;;;;;;483976;246;1983;-39
2022/02/19 08:23:14;;;;;;;;;;;22.00;34.50;;;;;;484314;246;1185;-39
2022/02/19 08:25:17;;;;;;;;;;;22.00;34.50;;;;;;484059;246;1072;-39
2022/02/19 08:27:18;;;;;;;;;;;22.10;34.50;;;;;;484065;246;1192;-39
2022/02/19 08:29:19;;;;;;;;;;;22.00;34.40;;;;;;484041;246;1230;-39
2022/02/19 08:31:21;;;;;;;;;;;22.00;34.50;;;;;;484429;246;1387;-39
2022/02/19 08:33:22;;;;;;;;;;;22.10;34.40;;;;;;484476;246;1284;-39
2022/02/19 08:35:23;;;;;;;;;;;22.10;34.40;;;;;;483984;246;2188;-39
2022/02/19 08:37:25;;;;;;;;;;;22.10;34.40;;;;;;483978;246;1327;-39
2022/02/19 08:39:26;;;;;;;;;;;22.00;34.40;;;;;;484314;246;1021;-39
2022/02/19 08:41:27;;;;;;;;;;;22.00;34.40;;;;;;483975;246;1202;-39
2022/02/19 08:43:29;;;;;;;;;;;22.10;34.50;;;;;;484164;246;1218;-39
2022/02/19 08:45:30;;;;;;;;;;;22.10;34.40;;;;;;484528;246;1083;-39
2022/02/19 08:47:32;;;;;;;;;;;22.10;34.40;;;;;;484435;246;1086;-39
2022/02/19 08:49:33;;;;;;;;;;;22.10;34.40;;;;;;483993;246;1603;-39
2022/02/19 08:51:34;;;;;;;;;;;22.10;34.50;;;;;;484240;246;1125;-39
2022/02/19 08:53:36;;;;;;;;;;;22.00;34.40;;;;;;484450;246;1308;-39
2022/02/19 08:55:37;;;;;;;;;;;22.10;34.40;;;;;;484199;246;2110;-40
2022/02/19 08:57:38;;;;;;;;;;;22.00;34.40;;;;;;484414;244;1189;-39
2022/02/19 08:59:40;;;;;;;;;;;22.00;34.50;;;;;;484064;246;1217;-39
2022/02/19 09:01:41;;;;;;;;;;;22.00;34.50;;;;;;484235;246;1056;-39
2022/02/19 09:03:42;;;;;;;;;;;22.00;34.50;;;;;;484479;246;1079;-39
2022/02/19 09:05:44;;;;;;;;;;;22.00;34.50;;;;;;484119;246;1294;-39
2022/02/19 09:07:45;;;;;;;;;;;22.00;34.40;;;;;;483933;246;1181;-39
2022/02/19 09:09:47;;;;;;;;;;;22.00;34.50;;;;;;484045;246;1071;-39
2022/02/19 09:11:48;;;;;;;;;;;22.00;34.50;;;;;;484398;246;2258;-39
2022/02/19 09:13:51;;;;;;;;;;;22.00;34.40;;;;;;484333;246;1262;-39
2022/02/19 09:15:50;;;;;;;;;;;22.00;34.50;;;;;;484256;246;2194;-39
2022/02/19 09:17:52;;;;;;;;;;;22.00;34.50;;;;;;484078;246;1076;-39
2022/02/19 09:19:53;;;;;;;;;;;22.00;34.40;;;;;;484434;246;1084;-39
2022/02/19 09:21:54;;;;;;;;;;;22.00;34.40;;;;;;484073;246;1133;-39
2022/02/19 09:23:56;;;;;;;;;;;22.00;34.40;;;;;;484455;246;1324;-39
2022/02/19 09:25:57;;;;;;;;;;;22.00;34.50;;;;;;484398;246;1031;-40
2022/02/19 09:27:58;;;;;;;;;;;22.00;34.50;;;;;;484462;246;1207;-39
2022/02/19 09:30:00;;;;;;;;;;;22.00;34.50;;;;;;484071;246;1216;-39
2022/02/19 09:32:01;;;;;;;;;;;22.00;34.50;;;;;;484331;246;1154;-39
2022/02/19 09:34:02;;;;;;;;;;;22.00;34.50;;;;;;484218;246;1261;-40
2022/02/19 09:36:04;;;;;;;;;;;22.10;34.40;;;;;;484071;246;2125;-39
2022/02/19 09:38:05;;;;;;;;;;;22.00;34.30;;;;;;483921;246;1306;-39
2022/02/19 09:40:07;;;;;;;;;;;22.10;34.30;;;;;;484038;246;1037;-39
2022/02/19 09:42:08;;;;;;;;;;;22.00;34.40;;;;;;484417;246;1208;-39
2022/02/19 09:44:09;;;;;;;;;;;22.10;34.40;;;;;;484293;246;1960;-39
2022/02/19 09:46:10;;;;;;;;;;;22.00;34.40;;;;;;484222;246;1120;-39
2022/02/19 09:48:12;;;;;;;;;;;22.10;34.40;;;;;;483960;246;1403;-39
2022/02/19 09:50:13;;;;;;;;;;;22.00;34.30;;;;;;484019;246;1336;-39
2022/02/19 09:52:14;;;;;;;;;;;22.00;34.40;;;;;;483952;246;1300;-39
2022/02/19 09:54:16;;;;;;;;;;;22.00;34.40;;;;;;484456;246;1236;-39
2022/02/19 09:56:17;;;;;;;;;;;22.00;34.40;;;;;;484317;246;2128;-39
2022/02/19 09:58:18;;;;;;;;;;;22.00;34.40;;;;;;484468;246;1196;-39
2022/02/19 10:00:20;;;;;;;;;;;22.00;34.40;;;;;;484137;246;1245;-39
2022/02/19 10:02:21;;;;;;;;;;;22.00;34.40;;;;;;484362;246;1201;-39
2022/02/19 10:04:22;;;;;;;;;;;22.00;34.50;;;;;;484010;246;1056;-39
2022/02/19 10:06:24;;;;;;;;;;;22.00;34.40;;;;;;484268;246;1313;-39
2022/02/19 10:08:25;;;;;;;;;;;22.00;34.30;;;;;;484431;246;1132;-39
2022/02/19 10:10:26;;;;;;;;;;;22.10;34.40;;;;;;483994;246;1239;-39
2022/02/19 10:12:28;;;;;;;;;;;22.10;34.40;;;;;;484392;246;1118;-39
2022/02/19 10:14:30;;;;;;;;;;;22.00;34.30;;;;;;484005;246;1599;-39
2022/02/19 10:16:31;;;;;;;;;;;22.00;34.40;;;;;;484332;246;2264;-39
2022/02/19 10:18:32;;;;;;;;;;;22.00;34.40;;;;;;484472;246;1044;-39
2022/02/19 10:20:33;;;;;;;;;;;22.00;34.40;;;;;;484396;246;1084;-39
2022/02/19 10:22:35;;;;;;;;;;;22.00;34.40;;;;;;484222;246;1195;-39
2022/02/19 10:24:36;;;;;;;;;;;22.00;34.40;;;;;;484478;246;1048;-39
2022/02/19 10:26:38;;;;;;;;;;;22.00;34.40;;;;;;483991;246;1356;-39
2022/02/19 10:28:39;;;;;;;;;;;22.00;34.40;;;;;;484037;246;1164;-39
2022/02/19 10:30:41;;;;;;;;;;;22.00;34.40;;;;;;484069;246;1236;-39
2022/02/19 10:32:42;;;;;;;;;;;22.00;34.40;;;;;;484097;246;1142;-39
2022/02/19 10:34:43;;;;;;;;;;;22.00;34.30;;;;;;484491;246;1039;-39
2022/02/19 10:36:45;;;;;;;;;;;22.00;34.40;;;;;;484190;246;2112;-40
2022/02/19 10:38:46;;;;;;;;;;;22.00;34.40;;;;;;484474;246;1191;-39
2022/02/19 10:40:47;;;;;;;;;;;22.00;34.40;;;;;;484024;246;1153;-39
2022/02/19 10:42:48;;;;;;;;;;;22.00;34.30;;;;;;484473;246;1184;-39
2022/02/19 10:44:50;;;;;;;;;;;22.00;34.30;;;;;;484321;246;1284;-39
2022/02/19 10:46:51;;;;;;;;;;;22.00;34.40;;;;;;483966;246;1798;-39
2022/02/19 10:48:52;;;;;;;;;;;22.00;34.30;;;;;;484070;246;1026;-39
2022/02/19 10:50:54;;;;;;;;;;;22.00;34.30;;;;;;484008;246;1094;-39
2022/02/19 10:52:55;;;;;;;;;;;22.00;34.30;;;;;;484421;246;1087;-39
2022/02/19 10:54:56;;;;;;;;;;;22.00;34.30;;;;;;484243;246;1040;-39
2022/02/19 10:56:58;;;;;;;;;;;22.10;34.30;;;;;;484380;246;2124;-39
2022/02/19 10:58:59;;;;;;;;;;;22.10;34.30;;;;;;484293;246;1134;-40
2022/02/19 11:01:00;;;;;;;;;;;22.00;34.30;;;;;;484055;246;1205;-39
2022/02/19 11:03:02;;;;;;;;;;;22.00;34.30;;;;;;483999;246;1111;-39
2022/02/19 11:05:03;;;;;;;;;;;22.00;34.30;;;;;;484462;246;1041;-39
2022/02/19 11:07:04;;;;;;;;;;;22.00;34.40;;;;;;484341;246;1285;-40
2022/02/19 11:09:06;;;;;;;;;;;22.00;34.40;;;;;;484502;246;1086;-39
2022/02/19 11:11:07;;;;;;;;;;;22.00;34.40;;;;;;483950;246;1147;-39
2022/02/19 11:13:08;;;;;;;;;;;22.00;34.30;;;;;;484464;246;1111;-39
2022/02/19 11:15:10;;;;;;;;;;;22.10;34.30;;;;;;484317;246;1157;-39
2022/02/19 11:17:12;;;;;;;;;;;22.10;34.40;;;;;;484378;246;2124;-39
2022/02/19 11:19:12;;;;;;;;;;;22.00;34.20;;;;;;483936;246;2312;-39
2022/02/19 11:21:13;;;;;;;;;;;22.00;34.30;;;;;;484327;246;1646;-39
2022/02/19 11:23:15;;;;;;;;;;;22.00;34.30;;;;;;483998;246;1251;-39
2022/02/19 11:25:16;;;;;;;;;;;22.00;34.30;;;;;;484448;246;1092;-39
2022/02/19 11:27:17;;;;;;;;;;;22.10;34.30;;;;;;484329;246;1361;-39
2022/02/19 11:29:19;;;;;;;;;;;22.00;34.30;;;;;;484513;246;1027;-39
2022/02/19 11:31:20;;;;;;;;;;;22.00;34.30;;;;;;484145;246;1205;-39
2022/02/19 11:33:21;;;;;;;;;;;22.10;34.30;;;;;;484409;246;1379;-39
2022/02/19 11:35:23;;;;;;;;;;;22.00;34.30;;;;;;483997;246;1075;-39
2022/02/19 11:37:24;;;;;;;;;;;22.00;34.30;;;;;;483970;246;1401;-39
2022/02/19 11:39:25;;;;;;;;;;;22.10;34.30;;;;;;484045;246;1057;-39
2022/02/19 11:41:27;;;;;;;;;;;22.00;34.40;;;;;;484315;246;1381;-39
2022/02/19 11:43:28;;;;;;;;;;;22.00;34.40;;;;;;484520;246;1049;-39
2022/02/19 11:45:29;;;;;;;;;;;22.00;34.40;;;;;;484367;246;1302;-39
2022/02/19 11:47:31;;;;;;;;;;;22.00;34.30;;;;;;483963;246;1216;-39
2022/02/19 11:49:32;;;;;;;;;;;22.00;34.30;;;;;;484498;246;1048;-39
2022/02/19 11:51:33;;;;;;;;;;;22.00;34.30;;;;;;484287;246;1207;-39
2022/02/19 11:53:34;;;;;;;;;;;22.00;34.30;;;;;;484508;246;1162;-39
2022/02/19 11:55:36;;;;;;;;;;;22.00;34.30;;;;;;484024;246;2188;-39
2022/02/19 11:57:38;;;;;;;;;;;22.10;34.30;;;;;;484457;246;1229;-39
2022/02/19 11:59:39;;;;;;;;;;;22.00;34.30;;;;;;484481;246;1175;-39
2022/02/19 12:01:42;;;;;;;;;;;22.00;34.30;;;;;;484033;246;1273;-39
2022/02/19 12:03:42;;;;;;;;;;;22.00;34.30;;;;;;484353;246;1341;-39
2022/02/19 12:05:43;;;;;;;;;;;22.00;34.30;;;;;;484373;242;1251;-39